createdAt,value
2024-01-03T00:00:19.094Z,7.89
2024-01-03T00:01:11.132Z,7.88
2024-01-03T00:02:11.107Z,7.88
2024-01-03T00:03:11.118Z,7.90
2024-01-03T00:04:11.142Z,7.89
2024-01-03T00:05:11.111Z,7.87
2024-01-03T00:06:11.265Z,7.89
2024-01-03T00:07:11.084Z,7.89
2024-01-03T00:08:15.110Z,7.91
2024-01-03T00:09:11.074Z,7.90
2024-01-03T00:10:19.096Z,7.88
2024-01-03T00:11:13.426Z,7.93
2024-01-03T00:12:14.076Z,7.95
2024-01-03T00:13:19.076Z,7.98
2024-01-03T00:14:19.113Z,8.01
2024-01-03T00:15:19.079Z,8.03
2024-01-03T00:16:19.094Z,8.04
2024-01-03T00:17:11.127Z,8.04
2024-01-03T00:18:16.703Z,8.05
2024-01-03T00:19:15.149Z,8.07
2024-01-03T00:20:11.117Z,8.09
2024-01-03T00:21:11.136Z,8.12
2024-01-03T00:22:11.081Z,8.13
2024-01-03T00:23:15.112Z,8.14
2024-01-03T00:24:14.111Z,8.14
2024-01-03T00:25:12.102Z,8.16
2024-01-03T00:26:11.134Z,8.17
2024-01-03T00:27:11.076Z,8.18
2024-01-03T00:28:11.083Z,8.20
2024-01-03T00:29:19.087Z,8.18
2024-01-03T00:30:11.119Z,8.19
2024-01-03T00:31:16.065Z,8.19
2024-01-03T00:32:11.122Z,8.18
2024-01-03T00:33:11.200Z,8.16
2024-01-03T00:34:19.355Z,8.15
2024-01-03T00:35:11.197Z,8.13
2024-01-03T00:36:11.073Z,8.09
2024-01-03T00:37:19.060Z,8.10
2024-01-03T00:38:11.136Z,8.09
2024-01-03T00:39:11.068Z,8.06
2024-01-03T00:40:19.063Z,8.05
2024-01-03T00:41:13.099Z,8.04
2024-01-03T00:42:11.068Z,8.03
2024-01-03T00:43:11.065Z,7.99
2024-01-03T00:44:11.096Z,7.93
2024-01-03T00:45:11.059Z,7.92
2024-01-03T00:46:11.061Z,7.88
2024-01-03T00:47:11.107Z,7.87
2024-01-03T00:48:11.664Z,7.86
2024-01-03T00:49:15.399Z,7.85
2024-01-03T00:50:11.076Z,7.82
2024-01-03T00:51:11.082Z,7.79
2024-01-03T00:52:11.069Z,7.78
2024-01-03T00:53:11.101Z,7.77
2024-01-03T00:54:11.057Z,7.78
2024-01-03T00:55:11.065Z,7.77
2024-01-03T00:56:11.080Z,7.77
2024-01-03T00:57:11.063Z,7.73
2024-01-03T00:58:11.251Z,7.75
2024-01-03T00:59:11.082Z,7.75
2024-01-03T01:00:11.061Z,7.71
2024-01-03T01:01:11.092Z,7.74
2024-01-03T01:02:11.140Z,7.75
2024-01-03T01:03:11.084Z,7.76
2024-01-03T01:04:11.125Z,7.73
2024-01-03T01:05:11.222Z,7.73
2024-01-03T01:06:11.167Z,7.73
2024-01-03T01:07:11.071Z,7.72
2024-01-03T01:08:11.345Z,7.72
2024-01-03T01:09:11.090Z,7.68
2024-01-03T01:10:11.070Z,7.69
2024-01-03T01:11:11.289Z,7.69
2024-01-03T01:12:11.094Z,7.60
2024-01-03T01:13:11.090Z,7.62
2024-01-03T01:14:11.106Z,7.65
2024-01-03T01:15:11.064Z,7.64
2024-01-03T01:16:11.064Z,7.65
2024-01-03T01:17:11.153Z,7.65
2024-01-03T01:18:11.524Z,7.66
2024-01-03T01:19:11.189Z,7.69
2024-01-03T01:20:11.195Z,7.71
2024-01-03T01:21:11.070Z,7.71
2024-01-03T01:22:11.064Z,7.74
2024-01-03T01:23:11.154Z,7.74
2024-01-03T01:24:11.074Z,7.74
2024-01-03T01:25:11.066Z,7.74
2024-01-03T01:26:11.238Z,7.75
2024-01-03T01:27:11.068Z,7.74
2024-01-03T01:28:11.201Z,7.72
2024-01-03T01:29:11.128Z,7.74
2024-01-03T01:30:11.101Z,7.73
2024-01-03T01:31:11.071Z,7.73
2024-01-03T01:32:13.681Z,7.75
2024-01-03T01:33:11.266Z,7.74
2024-01-03T01:34:11.195Z,7.73
2024-01-03T01:35:11.073Z,7.70
2024-01-03T01:36:11.069Z,7.71
2024-01-03T01:37:11.069Z,7.69
2024-01-03T01:38:11.387Z,7.67
2024-01-03T01:39:11.069Z,7.67
2024-01-03T01:40:11.066Z,7.67
2024-01-03T01:41:11.215Z,7.64
2024-01-03T01:42:11.070Z,7.62
2024-01-03T01:43:11.067Z,7.63
2024-01-03T01:44:11.105Z,7.61
2024-01-03T01:45:11.070Z,7.59
2024-01-03T01:46:11.121Z,7.57
2024-01-03T01:47:16.091Z,7.53
2024-01-03T01:48:13.409Z,7.53
2024-01-03T01:49:11.143Z,7.53
2024-01-03T01:50:11.070Z,7.50
2024-01-03T01:51:11.081Z,7.52
2024-01-03T01:52:11.079Z,7.53
2024-01-03T01:53:11.084Z,7.53
2024-01-03T01:54:11.080Z,7.52
2024-01-03T01:55:11.091Z,7.51
2024-01-03T01:56:11.083Z,7.53
2024-01-03T01:57:11.074Z,7.54
2024-01-03T01:58:11.404Z,7.55
2024-01-03T01:59:11.085Z,7.53
2024-01-03T02:00:11.071Z,7.54
2024-01-03T02:01:11.152Z,7.53
2024-01-03T02:02:11.113Z,7.52
2024-01-03T02:03:11.095Z,7.54
2024-01-03T02:04:11.070Z,7.51
2024-01-03T02:05:11.105Z,7.48
2024-01-03T02:06:11.154Z,7.47
2024-01-03T02:07:11.085Z,7.46
2024-01-03T02:08:11.492Z,7.46
2024-01-03T02:09:11.078Z,7.46
2024-01-03T02:10:11.173Z,7.45
2024-01-03T02:11:11.072Z,7.46
2024-01-03T02:12:11.076Z,7.47
2024-01-03T02:13:11.086Z,7.50
2024-01-03T02:14:11.074Z,7.48
2024-01-03T02:15:11.074Z,7.47
2024-01-03T02:16:14.023Z,7.48
2024-01-03T02:17:11.069Z,7.46
2024-01-03T02:18:11.469Z,7.49
2024-01-03T02:19:11.216Z,7.50
2024-01-03T02:20:12.132Z,7.52
2024-01-03T02:21:14.082Z,7.52
2024-01-03T02:22:11.084Z,7.51
2024-01-03T02:23:11.419Z,7.50
2024-01-03T02:24:11.093Z,7.50
2024-01-03T02:25:15.087Z,7.48
2024-01-03T02:26:18.115Z,7.48
2024-01-03T02:27:13.171Z,7.50
2024-01-03T02:28:11.253Z,7.49
2024-01-03T02:29:11.091Z,7.50
2024-01-03T02:30:11.156Z,7.51
2024-01-03T02:31:11.104Z,7.50
2024-01-03T02:32:11.083Z,7.52
2024-01-03T02:33:11.445Z,7.50
2024-01-03T02:34:11.194Z,7.52
2024-01-03T02:35:11.089Z,7.52
2024-01-03T02:36:11.132Z,7.51
2024-01-03T02:37:11.075Z,7.51
2024-01-03T02:38:11.357Z,7.50
2024-01-03T02:39:11.078Z,7.49
2024-01-03T02:40:11.080Z,7.50
2024-01-03T02:41:11.082Z,7.46
2024-01-03T02:42:11.078Z,7.47
2024-01-03T02:43:11.080Z,7.45
2024-01-03T02:44:11.082Z,7.44
2024-01-03T02:45:11.075Z,7.41
2024-01-03T02:46:11.124Z,7.39
2024-01-03T02:47:11.085Z,7.38
2024-01-03T02:48:11.694Z,7.40
2024-01-03T02:49:11.234Z,7.42
2024-01-03T02:50:11.087Z,7.41
2024-01-03T02:51:15.077Z,7.43
2024-01-03T02:52:11.082Z,7.44
2024-01-03T02:53:11.086Z,7.45
2024-01-03T02:54:11.077Z,7.50
2024-01-03T02:55:11.081Z,7.51
2024-01-03T02:56:11.102Z,7.55
2024-01-03T02:57:11.087Z,7.54
2024-01-03T02:58:11.407Z,7.57
2024-01-03T02:59:11.087Z,7.57
2024-01-03T03:00:11.082Z,7.62
2024-01-03T03:01:11.091Z,7.63
2024-01-03T03:02:11.088Z,7.59
2024-01-03T03:03:11.162Z,7.63
2024-01-03T03:04:11.081Z,7.65
2024-01-03T03:05:11.089Z,7.64
2024-01-03T03:06:11.335Z,7.60
2024-01-03T03:07:11.081Z,7.60
2024-01-03T03:08:11.438Z,7.60
2024-01-03T03:09:16.689Z,7.65
2024-01-03T03:10:13.136Z,7.64
2024-01-03T03:11:11.092Z,7.66
2024-01-03T03:12:11.087Z,7.63
2024-01-03T03:13:11.118Z,7.66
2024-01-03T03:14:11.089Z,7.67
2024-01-03T03:15:11.079Z,7.71
2024-01-03T03:16:11.100Z,7.72
2024-01-03T03:17:11.086Z,7.73
2024-01-03T03:18:12.526Z,7.74
2024-01-03T03:19:11.278Z,7.77
2024-01-03T03:20:11.083Z,7.76
2024-01-03T03:21:11.093Z,7.75
2024-01-03T03:22:11.092Z,7.75
2024-01-03T03:23:11.092Z,7.76
2024-01-03T03:24:11.089Z,7.78
2024-01-03T03:25:11.083Z,7.80
2024-01-03T03:26:11.084Z,7.76
2024-01-03T03:27:11.103Z,7.77
2024-01-03T03:28:12.325Z,7.79
2024-01-03T03:29:11.080Z,7.78
2024-01-03T03:30:11.227Z,7.80
2024-01-03T03:31:11.065Z,7.80
2024-01-03T03:32:11.067Z,7.81
2024-01-03T03:33:11.201Z,7.82
2024-01-03T03:34:11.258Z,7.84
2024-01-03T03:35:11.066Z,7.86
2024-01-03T03:36:15.080Z,7.86
2024-01-03T03:37:11.066Z,7.84
2024-01-03T03:38:11.304Z,7.84
2024-01-03T03:39:11.075Z,7.85
2024-01-03T03:40:11.075Z,7.85
2024-01-03T03:41:13.133Z,7.75
2024-01-03T03:42:11.067Z,7.74
2024-01-03T03:43:11.065Z,7.75
2024-01-03T03:44:11.076Z,7.73
2024-01-03T03:45:11.068Z,7.73
2024-01-03T03:46:11.074Z,7.72
2024-01-03T03:47:11.059Z,7.69
2024-01-03T03:48:11.543Z,7.69
2024-01-03T03:49:11.247Z,7.65
2024-01-03T03:50:11.099Z,7.59
2024-01-03T03:51:11.069Z,7.61
2024-01-03T03:52:11.077Z,7.57
2024-01-03T03:53:15.147Z,7.57
2024-01-03T03:54:11.067Z,7.56
2024-01-03T03:55:11.068Z,7.57
2024-01-03T03:56:11.076Z,7.54
2024-01-03T03:57:11.070Z,7.49
2024-01-03T03:58:11.224Z,7.47
2024-01-03T03:59:12.066Z,7.42
2024-01-03T04:00:11.065Z,7.40
2024-01-03T04:01:11.116Z,7.39
2024-01-03T04:02:11.063Z,7.36
2024-01-03T04:03:12.156Z,7.35
2024-01-03T04:04:11.099Z,7.36
2024-01-03T04:05:11.097Z,7.32
2024-01-03T04:06:11.157Z,7.28
2024-01-03T04:07:11.100Z,7.28
2024-01-03T04:08:11.489Z,7.27
2024-01-03T04:09:11.071Z,7.24
2024-01-03T04:10:11.091Z,7.24
2024-01-03T04:11:11.070Z,7.21
2024-01-03T04:12:11.076Z,7.22
2024-01-03T04:13:11.140Z,7.19
2024-01-03T04:14:11.074Z,7.20
2024-01-03T04:15:11.076Z,7.19
2024-01-03T04:16:11.111Z,7.16
2024-01-03T04:17:11.072Z,7.16
2024-01-03T04:18:11.484Z,7.17
2024-01-03T04:19:11.141Z,7.15
2024-01-03T04:20:11.068Z,7.15
2024-01-03T04:21:11.071Z,7.11
2024-01-03T04:22:11.085Z,7.10
2024-01-03T04:23:11.077Z,7.12
2024-01-03T04:24:11.071Z,7.14
2024-01-03T04:25:11.081Z,7.15
2024-01-03T04:26:11.072Z,7.18
2024-01-03T04:27:11.082Z,7.16
2024-01-03T04:28:11.301Z,7.16
2024-01-03T04:29:11.073Z,7.18
2024-01-03T04:30:11.098Z,7.20
2024-01-03T04:31:11.074Z,7.22
2024-01-03T04:32:12.071Z,7.21
2024-01-03T04:33:11.149Z,7.24
2024-01-03T04:34:11.250Z,7.26
2024-01-03T04:35:11.083Z,7.29
2024-01-03T04:36:11.072Z,7.29
2024-01-03T04:37:11.071Z,7.32
2024-01-03T04:38:11.230Z,7.34
2024-01-03T04:39:11.074Z,7.39
2024-01-03T04:40:11.068Z,7.42
2024-01-03T04:41:11.077Z,7.42
2024-01-03T04:42:11.074Z,7.45
2024-01-03T04:43:11.074Z,7.45
2024-01-03T04:44:11.072Z,7.45
2024-01-03T04:45:11.068Z,7.48
2024-01-03T04:46:11.069Z,7.52
2024-01-03T04:47:11.076Z,7.52
2024-01-03T04:48:11.494Z,7.54
2024-01-03T04:49:11.138Z,7.57
2024-01-03T04:50:11.078Z,7.56
2024-01-03T04:51:11.071Z,7.55
2024-01-03T04:52:11.077Z,7.59
2024-01-03T04:53:11.081Z,7.60
2024-01-03T04:54:11.094Z,7.61
2024-01-03T04:55:11.068Z,7.62
2024-01-03T04:56:11.082Z,7.67
2024-01-03T04:57:11.075Z,7.70
2024-01-03T04:58:11.294Z,7.68
2024-01-03T04:59:11.077Z,7.71
2024-01-03T05:00:11.072Z,7.70
2024-01-03T05:01:11.094Z,7.74
2024-01-03T05:02:11.070Z,7.74
2024-01-03T05:03:11.217Z,7.74
2024-01-03T05:04:11.068Z,7.76
2024-01-03T05:05:11.133Z,7.76
2024-01-03T05:06:11.215Z,7.79
2024-01-03T05:07:11.071Z,7.80
2024-01-03T05:08:11.390Z,7.77
2024-01-03T05:09:11.077Z,7.78
2024-01-03T05:10:13.074Z,7.77
2024-01-03T05:11:14.112Z,7.76
2024-01-03T05:12:11.092Z,7.77
2024-01-03T05:13:11.070Z,7.80
2024-01-03T05:14:11.069Z,7.82
2024-01-03T05:15:11.113Z,7.77
2024-01-03T05:16:11.077Z,7.81
2024-01-03T05:17:11.070Z,7.80
2024-01-03T05:18:11.551Z,7.82
2024-01-03T05:19:11.197Z,7.84
2024-01-03T05:20:11.073Z,7.84
2024-01-03T05:21:12.092Z,7.86
2024-01-03T05:22:11.081Z,7.89
2024-01-03T05:23:11.062Z,7.91
2024-01-03T05:24:13.389Z,7.92
2024-01-03T05:25:11.066Z,7.92
2024-01-03T05:26:11.070Z,7.88
2024-01-03T05:27:11.068Z,7.92
2024-01-03T05:28:11.296Z,7.91
2024-01-03T05:29:11.070Z,7.89
2024-01-03T05:30:11.210Z,7.87
2024-01-03T05:31:11.122Z,7.92
2024-01-03T05:32:11.081Z,7.95
2024-01-03T05:33:11.279Z,7.97
2024-01-03T05:34:11.151Z,7.97
2024-01-03T05:35:11.069Z,7.98
2024-01-03T05:36:11.096Z,7.99
2024-01-03T05:37:11.113Z,8.04
2024-01-03T05:38:11.356Z,8.03
2024-01-03T05:39:12.076Z,8.03
2024-01-03T05:40:11.082Z,8.01
2024-01-03T05:41:11.068Z,7.99
2024-01-03T05:42:11.081Z,7.98
2024-01-03T05:43:11.083Z,7.98
2024-01-03T05:44:11.076Z,7.98
2024-01-03T05:45:11.082Z,7.97
2024-01-03T05:46:11.082Z,7.96
2024-01-03T05:47:11.092Z,7.98
2024-01-03T05:48:11.478Z,7.94
2024-01-03T05:49:11.198Z,7.97
2024-01-03T05:50:11.116Z,7.96
2024-01-03T05:51:11.075Z,7.98
2024-01-03T05:52:11.080Z,7.98
2024-01-03T05:53:11.080Z,8.00
2024-01-03T05:54:11.080Z,8.00
2024-01-03T05:55:11.087Z,8.01
2024-01-03T05:56:11.078Z,8.00
2024-01-03T05:57:11.075Z,8.02
2024-01-03T05:58:11.332Z,8.02
2024-01-03T05:59:11.080Z,8.02
2024-01-03T06:00:11.083Z,8.01
2024-01-03T06:01:11.184Z,7.99
2024-01-03T06:02:11.084Z,7.99
2024-01-03T06:03:11.143Z,7.99
2024-01-03T06:04:11.150Z,7.94
2024-01-03T06:05:11.092Z,7.95
2024-01-03T06:06:11.220Z,7.92
2024-01-03T06:07:11.097Z,7.88
2024-01-03T06:08:11.573Z,7.86
2024-01-03T06:09:11.080Z,7.86
2024-01-03T06:10:11.082Z,7.85
2024-01-03T06:11:12.084Z,7.85
2024-01-03T06:12:14.734Z,7.81
2024-01-03T06:13:11.084Z,7.78
2024-01-03T06:14:11.094Z,7.78
2024-01-03T06:15:11.165Z,7.75
2024-01-03T06:16:11.078Z,7.74
2024-01-03T06:17:11.099Z,7.73
2024-01-03T06:18:11.565Z,7.71
2024-01-03T06:19:11.317Z,7.71
2024-01-03T06:20:11.097Z,7.70
2024-01-03T06:21:13.119Z,7.68
2024-01-03T06:22:11.082Z,7.66
2024-01-03T06:23:11.094Z,7.63
2024-01-03T06:24:11.082Z,7.62
2024-01-03T06:25:11.128Z,7.61
2024-01-03T06:26:11.094Z,7.61
2024-01-03T06:27:11.168Z,7.60
2024-01-03T06:28:11.533Z,7.59
2024-01-03T06:29:11.088Z,7.59
2024-01-03T06:30:11.168Z,7.57
2024-01-03T06:31:11.150Z,7.56
2024-01-03T06:32:11.084Z,7.53
2024-01-03T06:33:11.194Z,7.52
2024-01-03T06:34:11.156Z,7.51
2024-01-03T06:35:13.395Z,7.50
2024-01-03T06:36:11.081Z,7.48
2024-01-03T06:37:11.071Z,7.49
2024-01-03T06:38:11.349Z,7.49
2024-01-03T06:39:11.089Z,7.49
2024-01-03T06:40:11.062Z,7.50
2024-01-03T06:41:11.071Z,7.50
2024-01-03T06:42:11.064Z,7.50
2024-01-03T06:43:11.064Z,7.51
2024-01-03T06:44:11.081Z,7.51
2024-01-03T06:45:11.187Z,7.49
2024-01-03T06:46:11.067Z,7.50
2024-01-03T06:47:11.075Z,7.53
2024-01-03T06:48:11.675Z,7.56
2024-01-03T06:49:11.290Z,7.57
2024-01-03T06:50:11.072Z,7.60
2024-01-03T06:51:11.068Z,7.63
2024-01-03T06:52:11.065Z,7.62
2024-01-03T06:53:11.070Z,7.65
2024-01-03T06:54:11.070Z,7.68
2024-01-03T06:55:11.064Z,7.62
2024-01-03T06:56:11.074Z,7.67
2024-01-03T06:57:11.065Z,7.66
2024-01-03T06:58:11.198Z,7.67
2024-01-03T06:59:11.074Z,7.68
2024-01-03T07:00:11.155Z,7.69
2024-01-03T07:01:11.089Z,7.68
2024-01-03T07:02:11.073Z,7.71
2024-01-03T07:03:11.179Z,7.71
2024-01-03T07:04:11.072Z,7.72
2024-01-03T07:05:11.111Z,7.74
2024-01-03T07:06:11.223Z,7.75
2024-01-03T07:07:11.070Z,7.75
2024-01-03T07:08:11.151Z,7.72
2024-01-03T07:09:11.062Z,7.72
2024-01-03T07:10:11.087Z,7.68
2024-01-03T07:11:11.073Z,7.64
2024-01-03T07:12:11.130Z,7.65
2024-01-03T07:13:11.060Z,7.65
2024-01-03T07:14:11.061Z,7.68
2024-01-03T07:15:11.064Z,7.69
2024-01-03T07:16:11.065Z,7.70
2024-01-03T07:17:11.059Z,7.67
2024-01-03T07:18:11.406Z,7.69
2024-01-03T07:19:11.210Z,7.69
2024-01-03T07:20:11.091Z,7.71
2024-01-03T07:21:11.104Z,7.72
2024-01-03T07:22:11.059Z,7.75
2024-01-03T07:23:11.061Z,7.74
2024-01-03T07:24:11.106Z,7.77
2024-01-03T07:25:11.059Z,7.76
2024-01-03T07:26:11.064Z,7.75
2024-01-03T07:27:11.066Z,7.74
2024-01-03T07:28:11.227Z,7.75
2024-01-03T07:29:11.072Z,7.75
2024-01-03T07:30:11.238Z,7.75
2024-01-03T07:31:11.129Z,7.72
2024-01-03T07:32:11.066Z,7.72
2024-01-03T07:33:12.530Z,7.73
2024-01-03T07:34:11.191Z,7.73
2024-01-03T07:35:11.069Z,7.74
2024-01-03T07:36:11.122Z,7.75
2024-01-03T07:37:11.062Z,7.78
2024-01-03T07:38:11.485Z,7.76
2024-01-03T07:39:12.524Z,7.82
2024-01-03T07:40:11.079Z,7.84
2024-01-03T07:41:11.074Z,7.87
2024-01-03T07:42:11.191Z,7.90
2024-01-03T07:43:11.072Z,7.89
2024-01-03T07:44:11.069Z,7.92
2024-01-03T07:45:11.090Z,7.93
2024-01-03T07:46:11.061Z,7.91
2024-01-03T07:47:11.064Z,7.94
2024-01-03T07:48:11.504Z,7.95
2024-01-03T07:49:11.240Z,7.94
2024-01-03T07:50:11.197Z,7.95
2024-01-03T07:51:11.116Z,7.94
2024-01-03T07:52:11.071Z,7.89
2024-01-03T07:53:12.067Z,7.86
2024-01-03T07:54:12.103Z,7.85
2024-01-03T07:55:11.069Z,7.83
2024-01-03T07:56:11.065Z,7.84
2024-01-03T07:57:11.113Z,7.79
2024-01-03T07:58:11.279Z,7.79
2024-01-03T07:59:11.081Z,7.81
2024-01-03T08:00:11.127Z,7.82
2024-01-03T08:01:11.064Z,7.81
2024-01-03T08:02:11.067Z,7.81
2024-01-03T08:03:11.194Z,7.81
2024-01-03T08:04:11.170Z,7.80
2024-01-03T08:05:12.144Z,7.77
2024-01-03T08:06:11.177Z,7.74
2024-01-03T08:07:11.067Z,7.72
2024-01-03T08:08:11.407Z,7.68
2024-01-03T08:09:11.080Z,7.65
2024-01-03T08:10:11.077Z,7.62
2024-01-03T08:11:11.068Z,7.63
2024-01-03T08:12:11.077Z,7.62
2024-01-03T08:13:11.079Z,7.61
2024-01-03T08:14:11.072Z,7.63
2024-01-03T08:15:11.133Z,7.59
2024-01-03T08:16:11.077Z,7.59
2024-01-03T08:17:11.082Z,7.56
2024-01-03T08:18:11.796Z,7.55
2024-01-03T08:19:11.206Z,7.55
2024-01-03T08:20:11.204Z,7.56
2024-01-03T08:21:11.146Z,7.56
2024-01-03T08:22:11.074Z,7.58
2024-01-03T08:23:11.078Z,7.57
2024-01-03T08:24:11.076Z,7.59
2024-01-03T08:25:11.093Z,7.60
2024-01-03T08:26:13.077Z,7.62
2024-01-03T08:27:11.070Z,7.64
2024-01-03T08:28:11.293Z,7.64
2024-01-03T08:29:13.079Z,7.65
2024-01-03T08:30:11.151Z,7.65
2024-01-03T08:31:17.090Z,7.67
2024-01-03T08:32:11.103Z,7.65
2024-01-03T08:33:11.226Z,7.67
2024-01-03T08:34:11.243Z,7.70
2024-01-03T08:35:11.114Z,7.71
2024-01-03T08:36:15.105Z,7.74
2024-01-03T08:37:11.074Z,7.78
2024-01-03T08:38:11.434Z,7.80
2024-01-03T08:39:11.103Z,7.81
2024-01-03T08:40:11.075Z,7.82
2024-01-03T08:41:17.184Z,7.80
2024-01-03T08:42:11.093Z,7.78
2024-01-03T08:43:11.073Z,7.81
2024-01-03T08:44:11.079Z,7.81
2024-01-03T08:45:11.086Z,7.81
2024-01-03T08:46:11.085Z,7.80
2024-01-03T08:47:11.084Z,7.78
2024-01-03T08:48:11.740Z,7.76
2024-01-03T08:49:11.610Z,7.77
2024-01-03T08:50:11.222Z,7.78
2024-01-03T08:51:16.296Z,7.78
2024-01-03T08:52:11.093Z,7.75
2024-01-03T08:53:11.079Z,7.75
2024-01-03T08:54:11.081Z,7.76
2024-01-03T08:55:11.084Z,7.73
2024-01-03T08:56:14.135Z,7.74
2024-01-03T08:57:11.118Z,7.75
2024-01-03T08:58:11.463Z,7.75
2024-01-03T08:59:11.072Z,7.74
2024-01-03T09:00:11.126Z,7.72
2024-01-03T09:01:11.133Z,7.75
2024-01-03T09:02:11.080Z,7.79
2024-01-03T09:03:11.124Z,7.81
2024-01-03T09:04:11.129Z,7.85
2024-01-03T09:05:11.072Z,7.85
2024-01-03T09:06:11.182Z,7.89
2024-01-03T09:07:11.154Z,7.90
2024-01-03T09:08:11.298Z,7.94
2024-01-03T09:09:11.138Z,7.97
2024-01-03T09:10:11.092Z,7.99
2024-01-03T09:11:11.077Z,8.00
2024-01-03T09:12:11.127Z,8.00
2024-01-03T09:13:11.095Z,8.00
2024-01-03T09:14:11.080Z,8.01
2024-01-03T09:15:11.128Z,8.02
2024-01-03T09:16:11.082Z,7.99
2024-01-03T09:17:11.088Z,8.00
2024-01-03T09:18:11.437Z,8.01
2024-01-03T09:19:11.318Z,7.99
2024-01-03T09:20:11.138Z,7.99
2024-01-03T09:21:11.106Z,7.97
2024-01-03T09:22:11.081Z,7.93
2024-01-03T09:23:11.099Z,7.93
2024-01-03T09:24:11.081Z,7.92
2024-01-03T09:25:11.080Z,7.90
2024-01-03T09:26:11.080Z,7.91
2024-01-03T09:27:11.098Z,7.83
2024-01-03T09:28:11.271Z,7.82
2024-01-03T09:29:11.083Z,7.83
2024-01-03T09:30:11.254Z,7.82
2024-01-03T09:31:11.190Z,7.83
2024-01-03T09:32:12.078Z,7.80
2024-01-03T09:33:11.180Z,7.82
2024-01-03T09:34:11.193Z,7.83
2024-01-03T09:35:11.067Z,7.86
2024-01-03T09:36:17.066Z,7.88
2024-01-03T09:37:11.070Z,7.90
2024-01-03T09:38:11.279Z,7.91
2024-01-03T09:39:11.151Z,7.96
2024-01-03T09:40:11.070Z,7.99
2024-01-03T09:41:11.066Z,8.03
2024-01-03T09:42:11.308Z,8.06
2024-01-03T09:43:11.386Z,8.09
2024-01-03T09:44:11.083Z,8.09
2024-01-03T09:45:11.323Z,8.09
2024-01-03T09:46:11.069Z,8.11
2024-01-03T09:47:12.071Z,8.11
2024-01-03T09:48:11.975Z,8.11
2024-01-03T09:49:11.187Z,8.13
2024-01-03T09:50:11.153Z,8.13
2024-01-03T09:51:11.150Z,8.14
2024-01-03T09:52:13.780Z,8.16
2024-01-03T09:53:11.086Z,8.19
2024-01-03T09:54:12.092Z,8.21
2024-01-03T09:55:11.072Z,8.20
2024-01-03T09:56:11.082Z,8.17
2024-01-03T09:57:11.171Z,8.21
2024-01-03T09:58:11.480Z,8.22
2024-01-03T09:59:11.071Z,8.23
2024-01-03T10:00:11.224Z,8.25
2024-01-03T10:01:11.077Z,8.30
2024-01-03T10:02:11.068Z,8.31
2024-01-03T10:03:11.152Z,8.30
2024-01-03T10:04:11.107Z,8.33
2024-01-03T10:05:15.079Z,8.28
2024-01-03T10:06:17.977Z,8.33
2024-01-03T10:07:13.113Z,8.33
2024-01-03T10:08:15.085Z,8.35
2024-01-03T10:09:12.071Z,8.38
2024-01-03T10:10:11.069Z,8.40
2024-01-03T10:11:19.087Z,8.38
2024-01-03T10:12:17.836Z,8.41
2024-01-03T10:13:18.887Z,8.42
2024-01-03T10:14:20.215Z,8.45
2024-01-03T10:15:15.069Z,8.46
2024-01-03T10:16:11.099Z,8.48
2024-01-03T10:17:13.072Z,8.50
2024-01-03T10:18:16.866Z,8.53
2024-01-03T10:19:15.454Z,8.58
2024-01-03T10:20:19.170Z,8.61
2024-01-03T10:21:14.120Z,8.62
2024-01-03T10:22:11.088Z,8.66
2024-01-03T10:23:13.078Z,8.70
2024-01-03T10:24:11.078Z,8.75
2024-01-03T10:25:16.075Z,8.79
2024-01-03T10:26:11.131Z,8.82
2024-01-03T10:27:11.160Z,8.84
2024-01-03T10:28:11.407Z,8.83
2024-01-03T10:29:11.074Z,8.88
2024-01-03T10:30:15.185Z,8.86
2024-01-03T10:31:12.142Z,8.87
2024-01-03T10:32:17.067Z,8.88
2024-01-03T10:33:11.260Z,8.88
2024-01-03T10:34:11.165Z,8.90
2024-01-03T10:35:15.098Z,8.90
2024-01-03T10:36:11.137Z,8.90
2024-01-03T10:37:11.073Z,8.90
2024-01-03T10:38:11.504Z,8.89
2024-01-03T10:39:11.070Z,8.90
2024-01-03T10:40:12.939Z,8.92
2024-01-03T10:41:11.074Z,8.86
2024-01-03T10:42:12.281Z,8.79
2024-01-03T10:43:11.073Z,8.77
2024-01-03T10:44:11.080Z,8.75
2024-01-03T10:45:11.259Z,8.69
2024-01-03T10:46:11.072Z,8.70
2024-01-03T10:47:11.095Z,8.72
2024-01-03T10:48:11.761Z,8.67
2024-01-03T10:49:11.241Z,8.64
2024-01-03T10:50:11.080Z,8.65
2024-01-03T10:51:13.072Z,8.68
2024-01-03T10:52:11.098Z,8.69
2024-01-03T10:53:11.075Z,8.70
2024-01-03T10:54:13.074Z,8.72
2024-01-03T10:55:12.077Z,8.71
2024-01-03T10:56:11.111Z,8.70
2024-01-03T10:57:11.086Z,8.68
2024-01-03T10:58:20.080Z,8.67
2024-01-03T10:59:11.088Z,8.66
2024-01-03T11:00:19.080Z,8.64
2024-01-03T11:01:17.082Z,8.66
2024-01-03T11:02:19.096Z,8.64
2024-01-03T11:03:21.146Z,8.65
2024-01-03T11:04:17.097Z,8.60
2024-01-03T11:05:17.090Z,8.61
2024-01-03T11:06:15.158Z,8.59
2024-01-03T11:07:17.071Z,8.60
2024-01-03T11:08:13.388Z,8.61
2024-01-03T11:09:11.142Z,8.60
2024-01-03T11:10:11.067Z,8.56
2024-01-03T11:11:11.070Z,8.59
2024-01-03T11:12:11.128Z,8.60
2024-01-03T11:13:19.069Z,8.62
2024-01-03T11:14:19.070Z,8.60
2024-01-03T11:15:19.118Z,8.58
2024-01-03T11:16:19.071Z,8.56
2024-01-03T11:17:12.121Z,8.52
2024-01-03T11:18:11.761Z,8.49
2024-01-03T11:19:11.263Z,8.48
2024-01-03T11:20:11.105Z,8.45
2024-01-03T11:21:20.881Z,8.46
2024-01-03T11:22:11.068Z,8.45
2024-01-03T11:23:11.068Z,8.44
2024-01-03T11:24:19.074Z,8.40
2024-01-03T11:25:11.067Z,8.40
2024-01-03T11:26:11.086Z,8.39
2024-01-03T11:27:15.077Z,8.32
2024-01-03T11:28:19.074Z,8.31
2024-01-03T11:29:11.071Z,8.32
2024-01-03T11:30:19.160Z,8.29
2024-01-03T11:31:11.109Z,8.28
2024-01-03T11:32:11.062Z,8.29
2024-01-03T11:33:19.249Z,8.28
2024-01-03T11:34:19.212Z,8.30
2024-01-03T11:35:11.992Z,8.28
2024-01-03T11:36:11.239Z,8.28
2024-01-03T11:37:19.075Z,8.26
2024-01-03T11:38:11.126Z,8.27
2024-01-03T11:39:15.122Z,8.27
2024-01-03T11:40:15.075Z,8.31
2024-01-03T11:41:11.074Z,8.30
2024-01-03T11:42:11.114Z,8.33
2024-01-03T11:43:11.078Z,8.34
2024-01-03T11:44:19.081Z,8.33
2024-01-03T11:45:16.334Z,8.38
2024-01-03T11:46:13.094Z,8.40
2024-01-03T11:47:11.076Z,8.43
2024-01-03T11:48:11.647Z,8.48
2024-01-03T11:49:11.328Z,8.52
2024-01-03T11:50:11.076Z,8.52
2024-01-03T11:51:19.076Z,8.60
2024-01-03T11:52:11.080Z,8.62
2024-01-03T11:53:11.098Z,8.70
2024-01-03T11:54:11.110Z,8.80
2024-01-03T11:55:11.077Z,8.86
2024-01-03T11:56:11.077Z,8.90
2024-01-03T11:57:11.246Z,8.98
2024-01-03T11:58:11.366Z,8.99
2024-01-03T11:59:11.076Z,8.99
2024-01-03T12:00:11.099Z,9.02
2024-01-03T12:01:11.137Z,9.08
2024-01-03T12:02:12.069Z,9.12
2024-01-03T12:03:11.377Z,9.12
2024-01-03T12:04:13.153Z,9.19
2024-01-03T12:05:11.079Z,9.19
2024-01-03T12:06:11.200Z,9.21
2024-01-03T12:07:12.148Z,9.19
2024-01-03T12:08:11.076Z,9.25
2024-01-03T12:09:11.145Z,9.26
2024-01-03T12:10:13.095Z,9.20
2024-01-03T12:11:11.078Z,9.21
2024-01-03T12:12:11.100Z,9.16
2024-01-03T12:13:11.356Z,9.15
2024-01-03T12:14:11.076Z,9.21
2024-01-03T12:15:15.082Z,9.20
2024-01-03T12:16:11.083Z,9.18
2024-01-03T12:17:11.075Z,9.19
2024-01-03T12:18:11.235Z,9.16
2024-01-03T12:19:11.239Z,9.13
2024-01-03T12:20:13.125Z,9.18
2024-01-03T12:21:13.157Z,9.19
2024-01-03T12:22:11.094Z,9.16
2024-01-03T12:23:11.766Z,9.21
2024-01-03T12:24:11.100Z,9.18
2024-01-03T12:25:17.094Z,9.20
2024-01-03T12:26:11.082Z,9.23
2024-01-03T12:27:11.170Z,9.23
2024-01-03T12:28:11.079Z,9.24
2024-01-03T12:29:12.088Z,9.22
2024-01-03T12:30:15.234Z,9.21
2024-01-03T12:31:17.206Z,9.16
2024-01-03T12:32:11.181Z,9.18
2024-01-03T12:33:14.191Z,9.22
2024-01-03T12:34:11.317Z,9.22
2024-01-03T12:35:13.756Z,9.24
2024-01-03T12:36:11.150Z,9.25
2024-01-03T12:37:13.082Z,9.30
2024-01-03T12:38:11.345Z,9.27
2024-01-03T12:39:11.157Z,9.30
2024-01-03T12:40:11.067Z,9.35
2024-01-03T12:41:11.067Z,9.34
2024-01-03T12:42:11.073Z,9.29
2024-01-03T12:43:11.237Z,9.31
2024-01-03T12:44:11.069Z,9.29
2024-01-03T12:45:11.836Z,9.26
2024-01-03T12:46:11.070Z,9.29
2024-01-03T12:47:11.077Z,9.33
2024-01-03T12:48:11.221Z,9.28
2024-01-03T12:49:11.223Z,9.36
2024-01-03T12:50:11.145Z,9.36
2024-01-03T12:51:11.151Z,9.35
2024-01-03T12:52:11.068Z,9.39
2024-01-03T12:53:11.367Z,9.39
2024-01-03T12:54:11.076Z,9.39
2024-01-03T12:55:11.084Z,9.37
2024-01-03T12:56:11.081Z,9.39
2024-01-03T12:57:11.135Z,9.40
2024-01-03T12:58:11.074Z,9.44
2024-01-03T12:59:11.074Z,9.48
2024-01-03T13:00:11.135Z,9.48
2024-01-03T13:01:11.137Z,9.42
2024-01-03T13:02:11.083Z,9.46
2024-01-03T13:03:11.434Z,9.42
2024-01-03T13:04:11.140Z,9.38
2024-01-03T13:05:12.848Z,9.39
2024-01-03T13:06:11.143Z,9.36
2024-01-03T13:07:11.098Z,9.32
2024-01-03T13:08:11.082Z,9.33
2024-01-03T13:09:11.114Z,9.31
2024-01-03T13:10:11.068Z,9.26
2024-01-03T13:11:11.085Z,9.24
2024-01-03T13:12:11.157Z,9.20
2024-01-03T13:13:11.293Z,9.21
2024-01-03T13:14:11.085Z,9.27
2024-01-03T13:15:11.125Z,9.30
2024-01-03T13:16:11.081Z,9.32
2024-01-03T13:17:11.090Z,9.32
2024-01-03T13:18:11.637Z,9.27